createdAt,value
2017-07-17T00:00:43.905Z,17.1
2017-07-17T00:01:54.161Z,17.12
2017-07-17T00:03:04.682Z,17.07
2017-07-17T00:04:14.949Z,17.14
2017-07-17T00:05:24.912Z,17.13
2017-07-17T00:06:35.180Z,17.12
2017-07-17T00:07:45.459Z,16.99
2017-07-17T00:08:55.669Z,17.14
2017-07-17T00:10:05.927Z,17.1
2017-07-17T00:11:16.223Z,17.12
2017-07-17T00:12:26.526Z,17.17
2017-07-17T00:13:36.797Z,17.13
2017-07-17T00:14:47.314Z,17.16
2017-07-17T00:15:57.617Z,17.19
2017-07-17T00:17:07.888Z,17.23
2017-07-17T00:18:17.825Z,17.22
2017-07-17T00:19:28.102Z,17.28
2017-07-17T00:20:38.625Z,17.3
2017-07-17T00:21:48.588Z,17.3
2017-07-17T00:22:58.858Z,17.35
2017-07-17T00:24:09.120Z,17.34
2017-07-17T00:25:19.584Z,17.28
2017-07-17T00:26:30.123Z,17.34
2017-07-17T00:27:40.373Z,17.35
2017-07-17T00:28:50.323Z,17.34
2017-07-17T00:30:00.585Z,17.31
2017-07-17T00:31:10.859Z,17.34
2017-07-17T00:32:21.433Z,17.35
2017-07-17T00:33:31.716Z,17.38
2017-07-17T00:34:41.982Z,17.41
2017-07-17T00:35:51.935Z,17.35
2017-07-17T00:37:02.199Z,17.35
2017-07-17T00:38:12.722Z,17.38
2017-07-17T00:39:22.998Z,17.38
2017-07-17T00:40:33.274Z,17.42
2017-07-17T00:41:43.230Z,17.47
2017-07-17T00:42:53.487Z,17.41
2017-07-17T00:44:04.027Z,17.47
2017-07-17T00:45:13.987Z,17.47
2017-07-17T00:46:23.932Z,17.52
2017-07-17T00:47:33.891Z,17.47
2017-07-17T00:48:44.166Z,17.53
2017-07-17T00:49:54.706Z,17.5
2017-07-17T00:51:04.980Z,17.54
2017-07-17T00:52:14.629Z,17.54
2017-07-17T00:53:24.916Z,17.54
2017-07-17T00:54:35.187Z,17.53
2017-07-17T00:55:45.688Z,17.47
2017-07-17T00:56:55.945Z,17.53
2017-07-17T00:58:06.208Z,17.52
2017-07-17T00:59:16.480Z,17.54
2017-07-17T01:00:26.737Z,17.5
2017-07-17T01:01:37.292Z,17.57
2017-07-17T01:02:47.248Z,17.49
2017-07-17T01:03:57.531Z,17.46
2017-07-17T01:05:07.802Z,17.52
2017-07-17T01:06:18.069Z,17.53
2017-07-17T01:07:28.603Z,17.52
2017-07-17T01:08:38.871Z,17.57
2017-07-17T01:09:49.144Z,17.54
2017-07-17T01:10:59.093Z,17.6
2017-07-17T01:12:09.366Z,17.49
2017-07-17T01:13:19.891Z,17.63
2017-07-17T01:14:29.873Z,17.66
2017-07-17T01:15:39.772Z,17.68
2017-07-17T01:16:50.048Z,17.66
2017-07-17T01:18:00.337Z,17.54
2017-07-17T01:19:10.865Z,17.63
2017-07-17T01:20:21.141Z,17.63
2017-07-17T01:21:31.408Z,17.52
2017-07-17T01:22:41.686Z,17.6
2017-07-17T01:23:51.629Z,17.65
2017-07-17T01:25:02.144Z,17.59
2017-07-17T01:26:12.419Z,17.65
2017-07-17T01:27:22.677Z,17.66
2017-07-17T01:28:32.625Z,17.6
2017-07-17T01:29:42.268Z,17.56
2017-07-17T01:30:52.840Z,17.57
2017-07-17T01:32:02.783Z,17.49
2017-07-17T01:33:12.734Z,17.5
2017-07-17T01:34:23.012Z,17.56
2017-07-17T01:35:32.969Z,17.46
2017-07-17T01:36:43.181Z,17.53
2017-07-17T01:37:53.460Z,17.53
2017-07-17T01:39:03.731Z,17.5
2017-07-17T01:40:13.668Z,17.56
2017-07-17T01:41:23.951Z,17.5
2017-07-17T01:42:34.540Z,17.53
2017-07-17T01:43:44.492Z,17.49
2017-07-17T01:44:54.745Z,17.57
2017-07-17T01:46:05.011Z,17.56
2017-07-17T01:47:15.272Z,17.52
2017-07-17T01:48:25.464Z,17.53
2017-07-17T01:49:35.749Z,17.54
2017-07-17T01:50:46.014Z,17.52
2017-07-17T01:51:56.292Z,17.53
2017-07-17T01:53:06.569Z,17.52
2017-07-17T01:54:17.100Z,17.49
2017-07-17T01:55:27.398Z,17.53
2017-07-17T01:56:37.348Z,17.47
2017-07-17T01:57:47.303Z,17.5
2017-07-17T01:58:56.945Z,17.52
2017-07-17T02:00:07.135Z,17.46
2017-07-17T02:01:17.395Z,17.5
2017-07-17T02:02:27.663Z,17.54
2017-07-17T02:03:37.928Z,17.53
2017-07-17T02:04:47.883Z,17.46
2017-07-17T02:05:58.397Z,17.49
2017-07-17T02:07:08.685Z,17.47
2017-07-17T02:08:18.957Z,17.5
2017-07-17T02:09:29.223Z,17.49
2017-07-17T02:10:39.326Z,17.5
2017-07-17T02:11:49.832Z,17.39
2017-07-17T02:13:00.124Z,17.49
2017-07-17T02:14:10.385Z,17.46
2017-07-17T02:15:20.656Z,17.41
2017-07-17T02:16:30.928Z,17.38
2017-07-17T02:17:41.456Z,17.38
2017-07-17T02:18:51.730Z,17.41
2017-07-17T02:20:02.014Z,17.41
2017-07-17T02:21:12.318Z,17.34
2017-07-17T02:22:22.580Z,17.35
2017-07-17T02:23:33.110Z,17.41
2017-07-17T02:24:43.062Z,17.38
2017-07-17T02:25:53.334Z,17.38
2017-07-17T02:27:03.286Z,17.38
2017-07-17T02:28:13.554Z,17.35
2017-07-17T02:29:24.066Z,17.42
2017-07-17T02:30:33.999Z,17.35
2017-07-17T02:31:44.291Z,17.39
2017-07-17T02:32:54.553Z,17.38
2017-07-17T02:34:04.514Z,17.39
2017-07-17T02:35:15.024Z,17.39
2017-07-17T02:36:25.122Z,17.39
2017-07-17T02:37:35.081Z,17.37
2017-07-17T02:38:45.347Z,17.38
2017-07-17T02:39:55.610Z,17.39
2017-07-17T02:41:05.807Z,17.38
2017-07-17T02:42:16.057Z,17.34
2017-07-17T02:43:26.327Z,17.3
2017-07-17T02:44:36.583Z,17.37
2017-07-17T02:45:46.844Z,17.35
2017-07-17T02:46:57.031Z,17.3
2017-07-17T02:48:06.982Z,17.31
2017-07-17T02:49:17.264Z,17.3
2017-07-17T02:50:27.537Z,17.22
2017-07-17T02:51:37.809Z,17.24
2017-07-17T02:52:48.343Z,17.28
2017-07-17T02:53:58.606Z,17.27
2017-07-17T02:55:08.882Z,17.22
2017-07-17T02:56:18.829Z,17.19
2017-07-17T02:57:28.783Z,17.19
2017-07-17T02:58:39.296Z,17.27
2017-07-17T02:59:49.575Z,17.24
2017-07-17T03:00:59.857Z,17.24
2017-07-17T03:02:09.484Z,17.28
2017-07-17T03:03:19.453Z,17.17
2017-07-17T03:04:29.983Z,17.19
2017-07-17T03:05:40.259Z,17.24
2017-07-17T03:06:50.526Z,17.2
2017-07-17T03:08:00.481Z,17.14
2017-07-17T03:09:10.737Z,17.2
2017-07-17T03:10:21.333Z,17.2
2017-07-17T03:11:31.601Z,17.16
2017-07-17T03:12:41.873Z,17.16
2017-07-17T03:13:51.823Z,17.13
2017-07-17T03:15:01.810Z,17.07
2017-07-17T03:16:12.309Z,17.07
2017-07-17T03:17:22.581Z,17.07
2017-07-17T03:18:32.857Z,17.13
2017-07-17T03:19:42.818Z,17.16
2017-07-17T03:20:52.139Z,17.04
2017-07-17T03:22:02.359Z,17.05
2017-07-17T03:23:12.608Z,16.98
2017-07-17T03:24:22.869Z,16.97
2017-07-17T03:25:33.126Z,16.94
2017-07-17T03:26:43.092Z,16.89
2017-07-17T03:27:53.298Z,16.83
2017-07-17T03:29:03.574Z,16.84
2017-07-17T03:30:13.847Z,16.84
2017-07-17T03:31:24.106Z,16.84
2017-07-17T03:32:34.354Z,16.91
2017-07-17T03:33:44.551Z,16.84
2017-07-17T03:34:54.499Z,16.86
2017-07-17T03:36:04.145Z,16.77
2017-07-17T03:37:14.479Z,16.89
2017-07-17T03:38:24.444Z,16.69
2017-07-17T03:39:34.644Z,16.83
2017-07-17T03:40:44.902Z,16.8
2017-07-17T03:41:55.161Z,16.77
2017-07-17T03:43:05.757Z,16.8
2017-07-17T03:44:16.020Z,16.79
2017-07-17T03:45:26.601Z,16.79
2017-07-17T03:46:36.861Z,16.87
2017-07-17T03:47:47.125Z,16.86
2017-07-17T03:48:57.386Z,16.83
2017-07-17T03:50:07.674Z,16.87
2017-07-17T03:51:18.182Z,16.84
2017-07-17T03:52:28.461Z,16.79
2017-07-17T03:53:38.731Z,16.73
2017-07-17T03:54:49.005Z,16.73
2017-07-17T03:55:59.260Z,16.72
2017-07-17T03:57:09.450Z,16.64
2017-07-17T03:58:19.718Z,16.68
2017-07-17T03:59:29.997Z,16.59
2017-07-17T04:00:40.264Z,16.55
2017-07-17T04:01:50.226Z,16.55
2017-07-17T04:03:00.722Z,16.54
2017-07-17T04:04:10.657Z,16.49
2017-07-17T04:05:20.943Z,16.49
2017-07-17T04:06:30.897Z,16.49
2017-07-17T04:07:41.159Z,16.49
2017-07-17T04:08:51.673Z,16.44
2017-07-17T04:10:01.938Z,16.44
2017-07-17T04:11:12.207Z,16.37
2017-07-17T04:12:22.493Z,16.47
2017-07-17T04:13:32.448Z,16.46
2017-07-17T04:14:43.010Z,16.43
2017-07-17T04:15:53.303Z,16.46
2017-07-17T04:17:03.596Z,16.43
2017-07-17T04:18:13.857Z,16.44
2017-07-17T04:19:23.808Z,16.46
2017-07-17T04:20:34.327Z,16.47
2017-07-17T04:21:44.271Z,16.43
2017-07-17T04:22:54.529Z,16.51
2017-07-17T04:24:04.172Z,16.47
2017-07-17T04:25:14.118Z,16.49
2017-07-17T04:26:24.644Z,16.57
2017-07-17T04:27:34.920Z,16.55
2017-07-17T04:28:45.196Z,16.47
2017-07-17T04:29:55.135Z,16.47
2017-07-17T04:31:05.401Z,16.54
2017-07-17T04:32:15.929Z,16.47
2017-07-17T04:33:26.227Z,16.43
2017-07-17T04:34:36.502Z,16.4
2017-07-17T04:35:46.784Z,16.43
2017-07-17T04:36:56.744Z,16.51
2017-07-17T04:38:07.247Z,16.39
2017-07-17T04:39:17.523Z,16.44
2017-07-17T04:40:27.799Z,16.4
2017-07-17T04:41:37.768Z,16.36
2017-07-17T04:42:48.047Z,16.32
2017-07-17T04:43:58.566Z,16.28
2017-07-17T04:45:08.828Z,16.28
2017-07-17T04:46:18.800Z,16.29
2017-07-17T04:47:28.461Z,16.12
2017-07-17T04:48:38.741Z,16.06
2017-07-17T04:49:48.957Z,16.06
2017-07-17T04:50:58.909Z,16.03
2017-07-17T04:52:09.180Z,16.12
2017-07-17T04:53:19.126Z,16.03
2017-07-17T04:54:29.446Z,16.05
2017-07-17T04:55:39.694Z,16.09
2017-07-17T04:56:49.644Z,16.09
2017-07-17T04:57:59.919Z,16.12
2017-07-17T04:59:10.200Z,16.1
2017-07-17T05:00:20.463Z,16.09
2017-07-17T05:01:30.980Z,16.13
2017-07-17T05:02:41.242Z,16.18
2017-07-17T05:03:51.517Z,16.22
2017-07-17T05:05:01.468Z,16.26
2017-07-17T05:06:11.747Z,16.32
2017-07-17T05:07:21.949Z,16.4
2017-07-17T05:08:31.895Z,16.39
2017-07-17T05:09:41.214Z,16.43
2017-07-17T05:10:51.185Z,16.41
2017-07-17T05:12:01.461Z,16.5
2017-07-17T05:13:11.979Z,16.54
2017-07-17T05:14:22.253Z,16.57
2017-07-17T05:15:31.890Z,16.61
2017-07-17T05:16:41.844Z,16.62
2017-07-17T05:17:52.133Z,16.61
2017-07-17T05:19:02.645Z,16.54
2017-07-17T05:20:12.919Z,16.55
2017-07-17T05:21:23.184Z,16.59
2017-07-17T05:22:33.456Z,16.49
2017-07-17T05:23:43.722Z,16.55
2017-07-17T05:24:54.279Z,16.62
2017-07-17T05:26:04.554Z,16.68
2017-07-17T05:27:14.807Z,16.72
2017-07-17T05:28:25.077Z,16.69
2017-07-17T05:29:35.082Z,16.69
2017-07-17T05:30:45.661Z,16.79
2017-07-17T05:31:55.931Z,16.79
2017-07-17T05:33:05.914Z,16.77
2017-07-17T05:34:15.880Z,16.69
2017-07-17T05:35:26.189Z,16.76
2017-07-17T05:36:36.696Z,16.74
2017-07-17T05:37:46.335Z,16.64
2017-07-17T05:38:56.319Z,16.62
2017-07-17T05:40:06.258Z,16.51
2017-07-17T05:41:16.527Z,16.5
2017-07-17T05:42:27.327Z,16.55
2017-07-17T05:43:37.283Z,16.59
2017-07-17T05:44:47.257Z,16.66
2017-07-17T05:45:57.590Z,16.69
2017-07-17T05:47:07.909Z,16.76
2017-07-17T05:48:18.439Z,16.74
2017-07-17T05:49:28.456Z,16.84
2017-07-17T05:50:38.402Z,16.92
2017-07-17T05:51:48.354Z,16.99
2017-07-17T05:52:58.306Z,17.04
2017-07-17T05:54:08.560Z,17.12
2017-07-17T05:55:18.531Z,17.13
2017-07-17T05:56:28.805Z,17.12
2017-07-17T05:57:39.062Z,17.14
2017-07-17T05:58:49.331Z,17.12
2017-07-17T05:59:59.856Z,17.22
2017-07-17T06:01:09.808Z,17.19
2017-07-17T06:02:19.758Z,17.28
2017-07-17T06:03:30.041Z,17.37
2017-07-17T06:04:40.038Z,17.41
2017-07-17T06:05:50.248Z,17.39
2017-07-17T06:07:00.531Z,17.41
2017-07-17T06:08:10.810Z,17.34
2017-07-17T06:09:21.111Z,17.35
2017-07-17T06:10:31.071Z,17.39
2017-07-17T06:11:41.329Z,17.34
2017-07-17T06:12:51.597Z,17.41
2017-07-17T06:14:01.869Z,17.46
2017-07-17T06:15:12.387Z,17.52
2017-07-17T06:16:22.667Z,17.46
2017-07-17T06:17:32.874Z,17.49
2017-07-17T06:18:43.166Z,17.5
2017-07-17T06:19:53.164Z,17.32
2017-07-17T06:21:03.474Z,17.31
2017-07-17T06:22:13.451Z,17.22
2017-07-17T06:23:24.000Z,17.2
2017-07-17T06:24:34.268Z,17.14
2017-07-17T06:25:44.237Z,17.12
2017-07-17T06:26:54.207Z,17.17
2017-07-17T06:28:04.490Z,17.1
2017-07-17T06:29:15.068Z,17.14
2017-07-17T06:30:25.356Z,17.14
2017-07-17T06:31:35.331Z,17.14
2017-07-17T06:32:45.619Z,17.1
2017-07-17T06:33:55.585Z,17.24
2017-07-17T06:35:06.126Z,17.19
2017-07-17T06:36:16.416Z,17.1
2017-07-17T06:37:26.697Z,17.19
2017-07-17T06:38:36.964Z,17.34
2017-07-17T06:39:47.227Z,17.22
2017-07-17T06:40:57.729Z,17.23
2017-07-17T06:42:08.014Z,17.16
2017-07-17T06:43:18.313Z,17.19
2017-07-17T06:44:28.596Z,17.17
2017-07-17T06:45:38.248Z,17.12
2017-07-17T06:46:48.442Z,17.17
2017-07-17T06:47:58.727Z,17.27
2017-07-17T06:49:09.019Z,17.24
2017-07-17T06:50:18.981Z,17.35
2017-07-17T06:51:28.603Z,17.52
2017-07-17T06:52:38.864Z,17.54
2017-07-17T06:53:49.171Z,17.46
2017-07-17T06:54:59.448Z,17.49
2017-07-17T06:56:09.417Z,17.42
2017-07-17T06:57:19.377Z,17.44
2017-07-17T06:58:29.906Z,17.49
2017-07-17T06:59:40.179Z,17.71
2017-07-17T07:00:50.452Z,17.69
2017-07-17T07:02:00.615Z,17.71
2017-07-17T07:03:10.595Z,17.84
2017-07-17T07:04:20.802Z,17.87
2017-07-17T07:05:30.774Z,17.9
2017-07-17T07:06:40.731Z,17.94
2017-07-17T07:07:51.025Z,18.11
2017-07-17T07:09:01.289Z,18.16
2017-07-17T07:10:11.835Z,18.26
2017-07-17T07:11:22.119Z,18.23
2017-07-17T07:12:32.077Z,18.34
2017-07-17T07:13:42.353Z,18.33
2017-07-17T07:14:52.619Z,18.39
2017-07-17T07:16:03.142Z,18.48
2017-07-17T07:17:12.792Z,18.6
2017-07-17T07:18:23.082Z,18.67
2017-07-17T07:19:33.050Z,18.73
2017-07-17T07:20:43.352Z,18.71
2017-07-17T07:21:53.582Z,18.78
2017-07-17T07:23:03.848Z,18.89
2017-07-17T07:24:14.141Z,18.82
2017-07-17T07:25:24.419Z,18.78
2017-07-17T07:26:34.702Z,18.78
2017-07-17T07:27:45.249Z,18.88
2017-07-17T07:28:55.521Z,18.73
2017-07-17T07:30:05.794Z,18.63
2017-07-17T07:31:16.066Z,18.61
2017-07-17T07:32:26.333Z,18.67
2017-07-17T07:33:36.849Z,18.78
2017-07-17T07:34:47.129Z,18.57
2017-07-17T07:35:57.426Z,18.43
2017-07-17T07:37:07.714Z,18.36
2017-07-17T07:38:17.899Z,18.33
2017-07-17T07:39:28.463Z,18.24
2017-07-17T07:40:38.772Z,18.26
2017-07-17T07:41:49.040Z,18.23
2017-07-17T07:42:58.685Z,18.27
2017-07-17T07:44:08.955Z,18.24
2017-07-17T07:45:19.176Z,18.18
2017-07-17T07:46:29.454Z,18.26
2017-07-17T07:47:39.725Z,18.41
2017-07-17T07:48:50.010Z,18.36
2017-07-17T07:49:59.982Z,18.37
2017-07-17T07:51:10.187Z,18.49
2017-07-17T07:52:20.453Z,18.45
2017-07-17T07:53:30.434Z,18.33
2017-07-17T07:54:40.732Z,18.41
2017-07-17T07:55:50.358Z,18.51
2017-07-17T07:57:00.880Z,18.45
2017-07-17T07:58:10.835Z,18.46
2017-07-17T07:59:21.011Z,18.3
2017-07-17T08:00:30.652Z,18.33
2017-07-17T08:01:40.910Z,18.23
2017-07-17T08:02:51.159Z,18.36
2017-07-17T08:04:01.429Z,18.41
2017-07-17T08:05:11.392Z,18.31
2017-07-17T08:06:21.689Z,18.36
2017-07-17T08:07:31.958Z,18.42
2017-07-17T08:08:42.490Z,18.58
2017-07-17T08:09:52.146Z,18.6
2017-07-17T08:11:02.432Z,18.71
2017-07-17T08:12:12.712Z,18.79
2017-07-17T08:13:22.968Z,18.88
2017-07-17T08:14:32.934Z,18.91
2017-07-17T08:15:43.192Z,18.91
2017-07-17T08:16:53.155Z,18.98
2017-07-17T08:18:03.433Z,19
2017-07-17T08:19:13.719Z,19.04
2017-07-17T08:20:23.950Z,19.15
2017-07-17T08:21:34.236Z,19.17
2017-07-17T08:22:44.510Z,19.23
2017-07-17T08:23:54.786Z,19.17
2017-07-17T08:25:04.739Z,19.05
2017-07-17T08:26:15.300Z,18.76
2017-07-17T08:27:25.262Z,18.71
2017-07-17T08:28:35.459Z,18.66
2017-07-17T08:29:45.731Z,18.63
2017-07-17T08:30:55.733Z,18.63
2017-07-17T08:32:05.957Z,18.7
2017-07-17T08:33:15.919Z,18.73
2017-07-17T08:34:26.203Z,18.73
2017-07-17T08:35:36.678Z,18.86
2017-07-17T08:36:46.978Z,18.92
2017-07-17T08:37:57.519Z,19.08
2017-07-17T08:39:07.803Z,19.16
2017-07-17T08:40:18.082Z,19.32
2017-07-17T08:41:28.038Z,19.57
2017-07-17T08:42:38.327Z,19.77
2017-07-17T08:43:48.526Z,19.89
2017-07-17T08:44:58.476Z,19.87
2017-07-17T08:46:08.757Z,20.02
2017-07-17T08:47:19.087Z,19.97
2017-07-17T08:48:29.363Z,20
2017-07-17T08:49:39.582Z,19.96
2017-07-17T08:50:49.855Z,20.12
2017-07-17T08:52:00.151Z,20.36
2017-07-17T08:53:10.112Z,20.56
2017-07-17T08:54:20.086Z,20.78
2017-07-17T08:55:30.308Z,21.07
2017-07-17T08:56:40.377Z,21.17
2017-07-17T08:57:50.649Z,21.25
2017-07-17T08:59:00.937Z,21.28
2017-07-17T09:00:11.214Z,21.29
2017-07-17T09:01:21.774Z,20.93
2017-07-17T09:02:32.046Z,20.5
2017-07-17T09:03:42.038Z,20.24
2017-07-17T09:04:52.014Z,20.08
2017-07-17T09:06:02.298Z,20.21
2017-07-17T09:07:12.513Z,20.53
2017-07-17T09:08:22.794Z,20.71
2017-07-17T09:09:32.460Z,20.95
2017-07-17T09:10:42.786Z,20.8
2017-07-17T09:11:53.066Z,20.82
2017-07-17T09:13:02.683Z,20.96
2017-07-17T09:14:12.640Z,21.28
2017-07-17T09:15:21.964Z,21.37
2017-07-17T09:16:32.248Z,21.5
2017-07-17T09:17:42.636Z,21.51
2017-07-17T09:18:53.185Z,21.54
2017-07-17T09:20:03.473Z,21.51
2017-07-17T09:21:13.119Z,21.43
2017-07-17T09:22:23.076Z,21.56
2017-07-17T09:23:33.050Z,21.6
2017-07-17T09:24:43.643Z,21.7
2017-07-17T09:25:53.620Z,21.84
2017-07-17T09:27:03.599Z,21.89
2017-07-17T09:28:13.878Z,21.72
2017-07-17T09:29:23.840Z,21.62
2017-07-17T09:30:34.374Z,21.65
2017-07-17T09:31:44.653Z,21.68
2017-07-17T09:32:54.926Z,21.83
2017-07-17T09:34:05.204Z,21.85
2017-07-17T09:35:14.868Z,21.89
2017-07-17T09:36:25.427Z,22.08
2017-07-17T09:37:35.740Z,22.36
2017-07-17T09:38:45.398Z,22.31
2017-07-17T09:39:55.366Z,22.16
2017-07-17T09:41:05.652Z,22.36
2017-07-17T09:42:16.172Z,22.43
2017-07-17T09:43:26.133Z,22.49
2017-07-17T09:44:35.763Z,22.34
2017-07-17T09:45:46.046Z,22.22
2017-07-17T09:46:56.342Z,22.08
2017-07-17T09:48:06.868Z,22.18
2017-07-17T09:49:16.535Z,22.03
2017-07-17T09:50:26.507Z,22.01
2017-07-17T09:51:36.459Z,22.36
2017-07-17T09:52:46.744Z,22.74
2017-07-17T09:53:56.990Z,22.7
2017-07-17T09:55:06.673Z,22.7
2017-07-17T09:56:16.692Z,22.84
2017-07-17T09:57:27.030Z,22.7
2017-07-17T09:58:37.326Z,22.67
2017-07-17T09:59:47.893Z,22.68
2017-07-17T10:00:57.853Z,22.61
2017-07-17T10:02:08.136Z,22.61
2017-07-17T10:03:18.099Z,22.88
2017-07-17T10:04:28.065Z,22.96
2017-07-17T10:05:38.627Z,23.02
2017-07-17T10:06:48.915Z,23.18
2017-07-17T10:07:59.211Z,23.29
2017-07-17T10:09:09.511Z,23.4
2017-07-17T10:10:19.172Z,23.42
2017-07-17T10:11:29.812Z,23.2
2017-07-17T10:12:40.100Z,23.04
2017-07-17T10:13:50.379Z,23.07
2017-07-17T10:15:00.357Z,23.02
2017-07-17T10:16:10.327Z,23.14
2017-07-17T10:17:20.616Z,23.45
2017-07-17T10:18:30.912Z,23.39
2017-07-17T10:19:41.201Z,23.33
2017-07-17T10:20:51.482Z,23.47
2017-07-17T10:22:01.774Z,23.44
2017-07-17T10:23:12.293Z,23.4
2017-07-17T10:24:22.585Z,23.36
2017-07-17T10:25:32.884Z,23.44
2017-07-17T10:26:43.161Z,23.71
2017-07-17T10:27:53.500Z,23.91
2017-07-17T10:29:03.718Z,23.54
2017-07-17T10:30:13.693Z,23.51
2017-07-17T10:31:23.661Z,23.66
2017-07-17T10:32:33.636Z,23.79
2017-07-17T10:33:43.590Z,23.94
2017-07-17T10:34:53.820Z,24.1
2017-07-17T10:36:04.123Z,24.5
2017-07-17T10:37:14.420Z,25.01
2017-07-17T10:38:24.710Z,25.37
2017-07-17T10:39:34.689Z,25.76
2017-07-17T10:40:45.270Z,25.74
2017-07-17T10:41:55.566Z,25.04
2017-07-17T10:43:05.902Z,24.58
2017-07-17T10:44:15.891Z,24.14
2017-07-17T10:45:26.206Z,23.96
2017-07-17T10:46:36.430Z,23.67
2017-07-17T10:47:46.392Z,23.89
2017-07-17T10:48:56.677Z,23.91
2017-07-17T10:50:06.340Z,24.14
2017-07-17T10:51:16.641Z,24.28
2017-07-17T10:52:26.920Z,24.48
2017-07-17T10:53:37.215Z,24.36
2017-07-17T10:54:47.166Z,23.95
2017-07-17T10:55:57.467Z,23.7
2017-07-17T10:57:07.444Z,23.91
2017-07-17T10:58:17.988Z,24.18
2017-07-17T10:59:28.256Z,24.14
2017-07-17T11:00:37.913Z,24.24
2017-07-17T11:01:48.207Z,23.95
2017-07-17T11:02:58.488Z,23.56
2017-07-17T11:04:09.017Z,23.36
2017-07-17T11:05:18.651Z,23.54
2017-07-17T11:06:28.334Z,23.99
2017-07-17T11:07:38.628Z,24.44
2017-07-17T11:08:48.603Z,24.56
2017-07-17T11:09:59.135Z,24.51
2017-07-17T11:11:08.784Z,24.68
2017-07-17T11:12:18.742Z,24.82
2017-07-17T11:13:29.116Z,24.59
2017-07-17T11:14:39.412Z,24.28
2017-07-17T11:15:50.011Z,24.36
2017-07-17T11:16:59.349Z,24.24
2017-07-17T11:18:09.660Z,24.01
2017-07-17T11:19:19.633Z,24.07
2017-07-17T11:20:29.931Z,24.07
2017-07-17T11:21:40.463Z,23.86
2017-07-17T11:22:50.103Z,23.88
2017-07-17T11:24:00.376Z,23.91
2017-07-17T11:25:10.343Z,23.89
2017-07-17T11:26:20.662Z,23.91
2017-07-17T11:27:30.902Z,23.58
2017-07-17T11:28:40.570Z,23.52
2017-07-17T11:29:50.847Z,24.03
2017-07-17T11:31:01.140Z,23.92
2017-07-17T11:32:11.487Z,23.88
2017-07-17T11:33:21.090Z,24.16
2017-07-17T11:34:31.364Z,24.29
2017-07-17T11:35:41.666Z,24.55
2017-07-17T11:36:51.318Z,24.47
2017-07-17T11:38:01.300Z,24.47
2017-07-17T11:39:11.590Z,25.01
2017-07-17T11:40:21.870Z,25.31
2017-07-17T11:41:31.848Z,25.68
2017-07-17T11:42:41.494Z,25.61
2017-07-17T11:43:51.139Z,25.68
2017-07-17T11:45:01.690Z,25.76
2017-07-17T11:56:16.288Z,23.96
2017-07-17T11:58:34.796Z,23.81
2017-07-17T11:59:44.772Z,23.67
2017-07-17T12:00:54.743Z,23.71
2017-07-17T12:02:04.654Z,23.45
2017-07-17T12:03:14.963Z,23.48
2017-07-17T12:04:25.251Z,23.59
2017-07-17T12:06:44.077Z,23.55
2017-07-17T12:07:54.624Z,23.59
2017-07-17T12:09:04.306Z,23.48
2017-07-17T12:10:14.290Z,23.44
2017-07-17T12:11:24.589Z,23.48
2017-07-17T12:12:34.902Z,23.44
2017-07-17T12:13:45.112Z,23.44
2017-07-17T12:14:55.403Z,23.64
2017-07-17T12:16:05.375Z,24
2017-07-17T12:17:15.675Z,23.89
2017-07-17T12:18:25.974Z,23.77
2017-07-17T12:19:36.204Z,24.18
2017-07-17T12:20:46.487Z,24.5
2017-07-17T12:21:56.766Z,24.66
2017-07-17T12:23:07.104Z,24.71
2017-07-17T12:24:17.417Z,24.63
2017-07-17T12:25:27.973Z,24.82
2017-07-17T12:26:37.634Z,25.29
2017-07-17T12:27:47.929Z,24.84
2017-07-17T12:28:58.234Z,24.46
2017-07-17T12:30:08.251Z,24.14
2017-07-17T12:31:18.866Z,24.31
2017-07-17T12:32:28.538Z,24.78
2017-07-17T12:33:38.844Z,25.16
2017-07-17T12:34:48.827Z,25.18
2017-07-17T12:35:59.121Z,25.29
2017-07-17T12:37:09.349Z,24.77
2017-07-17T12:38:19.666Z,24.38
2017-07-17T12:39:29.958Z,24.32
2017-07-17T12:40:39.615Z,24.16
2017-07-17T12:41:49.607Z,24
2017-07-17T12:43:00.165Z,23.99
2017-07-17T12:44:10.456Z,24.04
2017-07-17T12:45:20.752Z,24.24
2017-07-17T12:46:30.407Z,24.07
2017-07-17T12:47:40.697Z,23.99
2017-07-17T12:48:50.946Z,24.04
2017-07-17T12:50:01.246Z,23.71
2017-07-17T12:51:11.583Z,24.03
2017-07-17T12:52:21.585Z,24.32
2017-07-17T12:53:31.875Z,24.25
2017-07-17T12:54:42.416Z,24.16
2017-07-17T12:55:52.715Z,24.46
2017-07-17T12:57:03.046Z,24.48
2017-07-17T12:58:13.354Z,24.69
2017-07-17T12:59:23.657Z,24.5
2017-07-17T13:00:34.198Z,24.22
2017-07-17T13:01:44.463Z,24.13
2017-07-17T13:02:54.745Z,24.18
2017-07-17T13:04:05.054Z,24.19
2017-07-17T13:05:15.040Z,24.25
2017-07-17T13:06:25.254Z,23.96
2017-07-17T13:07:35.235Z,23.88
2017-07-17T13:08:45.537Z,23.95
2017-07-17T13:09:55.539Z,23.92
2017-07-17T13:11:05.208Z,24.29
2017-07-17T13:12:15.183Z,24.66
2017-07-17T13:13:25.172Z,24.93
2017-07-17T13:14:35.491Z,24.78
2017-07-17T13:15:45.794Z,24.79
2017-07-17T13:16:55.784Z,24.84
2017-07-17T13:18:06.342Z,24.56
2017-07-17T13:19:15.717Z,24.03
2017-07-17T13:20:25.716Z,23.88
2017-07-17T13:21:35.377Z,24.03
2017-07-17T13:22:45.657Z,24.14
2017-07-17T13:23:56.219Z,24.24
2017-07-17T13:25:06.531Z,24.31
2017-07-17T13:26:16.828Z,24.41
2017-07-17T13:27:27.148Z,24.68
2017-07-17T13:28:37.137Z,25.12
2017-07-17T13:29:47.676Z,25.11
2017-07-17T13:30:57.962Z,25.34
2017-07-17T13:32:08.245Z,25.4
2017-07-17T13:33:18.555Z,25.51
2017-07-17T13:34:28.870Z,25.24
2017-07-17T13:35:39.404Z,25.06
2017-07-17T13:36:49.706Z,24.59
2017-07-17T13:38:00.016Z,24.25
2017-07-17T13:39:10.212Z,24.31
2017-07-17T13:40:20.213Z,24.59
2017-07-17T13:41:30.459Z,24.71
2017-07-17T13:42:40.441Z,24.66
2017-07-17T13:43:50.741Z,24.38
2017-07-17T13:45:01.020Z,24.26
2017-07-17T13:46:11.015Z,24.58
2017-07-17T13:47:21.248Z,24.71
2017-07-17T13:48:31.539Z,24.63
2017-07-17T13:49:41.868Z,24.66
2017-07-17T13:50:51.877Z,24.68
2017-07-17T13:52:01.546Z,24.85
2017-07-17T13:53:12.109Z,25.07
2017-07-17T13:54:22.085Z,24.84
2017-07-17T13:55:32.410Z,25.04
2017-07-17T13:56:42.710Z,25.48
2017-07-17T13:57:52.996Z,25.98
2017-07-17T13:59:02.916Z,26.42
2017-07-17T14:00:13.260Z,26.76
2017-07-17T14:01:23.553Z,26.66
2017-07-17T14:02:33.529Z,26.93
2017-07-17T14:03:43.256Z,26.81
2017-07-17T14:04:53.856Z,26.48
2017-07-17T14:06:04.155Z,26.37
2017-07-17T14:07:14.466Z,26.04
2017-07-17T14:08:24.789Z,25.91
2017-07-17T14:09:35.079Z,25.8
2017-07-17T14:10:45.358Z,25.81
2017-07-17T14:11:55.684Z,25.92
2017-07-17T14:13:05.685Z,26.04
2017-07-17T14:14:16.007Z,25.88
2017-07-17T14:15:26.322Z,25.85
2017-07-17T14:16:36.561Z,25.86
2017-07-17T14:17:46.532Z,26.18
2017-07-17T14:18:56.827Z,26.39
2017-07-17T14:20:07.129Z,26.34
2017-07-17T14:21:17.126Z,26.16
2017-07-17T14:22:27.668Z,25.88
2017-07-17T14:23:37.962Z,25.7
2017-07-17T14:24:48.259Z,25.51
2017-07-17T14:25:58.245Z,25.62
2017-07-17T14:27:08.230Z,25.88
2017-07-17T14:28:18.456Z,25.93
2017-07-17T14:29:28.754Z,25.89
2017-07-17T14:30:39.046Z,25.92
2017-07-17T14:31:49.341Z,26.04
2017-07-17T14:32:59.311Z,26.59
2017-07-17T14:34:09.886Z,27.11
2017-07-17T14:35:20.186Z,26.97
2017-07-17T14:36:30.507Z,26.85
2017-07-17T14:37:40.588Z,26.29
2017-07-17T14:38:50.254Z,25.88
2017-07-17T14:40:00.800Z,26.03
2017-07-17T14:41:10.785Z,26.41
2017-07-17T14:42:21.102Z,26.83
2017-07-17T14:43:31.395Z,26.67
2017-07-17T14:44:41.802Z,26.63
2017-07-17T14:45:52.041Z,26.81
2017-07-17T14:47:02.350Z,27.13
2017-07-17T14:48:12.658Z,27.18
2017-07-17T14:49:22.329Z,27.19
2017-07-17T14:50:32.308Z,26.71
2017-07-17T14:51:42.570Z,26.55
2017-07-17T14:52:52.250Z,26.68
2017-07-17T14:54:01.929Z,27
2017-07-17T14:55:12.219Z,27.44
2017-07-17T14:56:22.210Z,27.67
2017-07-17T14:57:32.766Z,27.88
2017-07-17T14:58:42.746Z,27.88
2017-07-17T14:59:52.424Z,27.94
2017-07-17T15:01:02.706Z,28.19
2017-07-17T15:02:12.694Z,28.01
2017-07-17T15:03:22.932Z,28.08
2017-07-17T15:04:33.208Z,28.15
2017-07-17T15:05:43.182Z,28.19
2017-07-17T15:06:53.500Z,27.98
2017-07-17T15:08:03.490Z,27.23
2017-07-17T15:09:14.038Z,26.88
2017-07-17T15:10:24.361Z,26.61
2017-07-17T15:11:34.340Z,26.79
2017-07-17T15:12:44.649Z,26.97
2017-07-17T15:13:54.627Z,27.33
2017-07-17T15:15:05.185Z,27.72
2017-07-17T15:16:15.488Z,27.98
2017-07-17T15:17:25.807Z,28.28
2017-07-17T15:18:35.792Z,28.47
2017-07-17T15:19:46.080Z,27.78